createdAt,value
2019-01-13T00:01:20.931Z,100731.14
2019-01-13T00:03:49.816Z,100731.02
2019-01-13T00:06:18.666Z,100724.08
2019-01-13T00:08:47.557Z,100730.08
2019-01-13T00:11:16.423Z,100732.66
2019-01-13T00:13:45.326Z,100733.28
2019-01-13T00:16:14.225Z,100726.66
2019-01-13T00:18:43.116Z,100728.50
2019-01-13T00:21:11.993Z,100718.79
2019-01-13T00:23:40.888Z,100713.75
2019-01-13T00:26:09.816Z,100699.15
2019-01-13T00:28:38.715Z,100703.08
2019-01-13T00:31:07.622Z,100705.91
2019-01-13T00:33:36.589Z,100710.44
2019-01-13T00:36:05.533Z,100712.36
2019-01-13T00:38:34.410Z,100717.31
2019-01-13T00:41:03.315Z,100703.97
2019-01-13T00:43:32.186Z,100702.36
2019-01-13T00:46:01.101Z,100708.98
2019-01-13T00:48:30.005Z,100704.13
2019-01-13T00:50:58.876Z,100712.44
2019-01-13T00:53:27.769Z,100700.94
2019-01-13T00:55:56.668Z,100709.89
2019-01-13T00:58:25.564Z,100707.19
2019-01-13T01:00:54.467Z,100714.93
2019-01-13T01:03:23.351Z,100718.61
2019-01-13T01:05:52.446Z,100715.34
2019-01-13T01:08:21.336Z,100701.72
2019-01-13T01:10:50.248Z,100697.30
2019-01-13T01:13:19.135Z,100690.05
2019-01-13T01:15:48.007Z,100698.84
2019-01-13T01:18:16.940Z,100690.98
2019-01-13T01:20:45.815Z,100685.95
2019-01-13T01:23:14.718Z,100680.68
2019-01-13T01:25:43.594Z,100671.64
2019-01-13T01:28:12.487Z,100672.45
2019-01-13T01:30:41.371Z,100670.97
2019-01-13T01:33:10.275Z,100653.78
2019-01-13T01:35:39.143Z,100657.14
2019-01-13T01:38:08.070Z,100649.88
2019-01-13T01:40:36.968Z,100631.81
2019-01-13T01:43:05.889Z,100626.70
2019-01-13T01:45:34.785Z,100620.20
2019-01-13T01:48:03.669Z,100622.30
2019-01-13T01:50:32.584Z,100628.42
2019-01-13T01:53:02.054Z,100625.84
2019-01-13T01:55:30.370Z,100626.10
2019-01-13T01:57:59.242Z,100624.73
2019-01-13T02:00:28.181Z,100636.30
2019-01-13T02:02:57.066Z,100643.03
2019-01-13T02:05:25.944Z,100641.27
2019-01-13T02:07:54.868Z,100640.08
2019-01-13T02:10:23.780Z,100646.05
2019-01-13T02:12:52.672Z,100643.84
2019-01-13T02:15:26.390Z,100635.73
2019-01-13T02:17:55.326Z,100649.48
2019-01-13T02:20:24.202Z,100645.86
2019-01-13T02:22:53.123Z,100651.63
2019-01-13T02:25:24.404Z,100665.03
2019-01-13T02:27:53.286Z,100664.53
2019-01-13T02:30:23.126Z,100664.77
2019-01-13T02:35:50.304Z,100650.41
2019-01-13T02:38:19.238Z,100642.95
2019-01-13T02:40:48.118Z,100640.45
2019-01-13T02:43:16.998Z,100637.91
2019-01-13T02:45:45.883Z,100639.89
2019-01-13T02:48:14.789Z,100629.16
2019-01-13T02:50:43.692Z,100624.42
2019-01-13T02:53:12.600Z,100610.42
2019-01-13T02:55:41.471Z,100599.18
2019-01-13T02:58:10.380Z,100586.59
2019-01-13T03:00:39.289Z,100581.81
2019-01-13T03:03:08.199Z,100589.30
2019-01-13T03:05:37.090Z,100597.59
2019-01-13T03:08:06.004Z,100598.02
2019-01-13T03:10:34.918Z,100580.71
2019-01-13T03:13:03.834Z,100578.30
2019-01-13T03:15:32.673Z,100566.47
2019-01-13T03:18:01.561Z,100560.47
2019-01-13T03:20:30.483Z,100557.17
2019-01-13T03:22:59.373Z,100549.53
2019-01-13T03:25:28.244Z,100537.23
2019-01-13T03:27:57.168Z,100531.77
2019-01-13T03:30:26.050Z,100529.09
2019-01-13T03:32:54.956Z,100527.28
2019-01-13T03:35:23.873Z,100528.63
2019-01-13T03:37:52.789Z,100532.78
2019-01-13T03:40:23.703Z,100535.08
2019-01-13T03:42:52.658Z,100544.91
2019-01-13T03:45:21.557Z,100544.32
2019-01-13T03:47:50.445Z,100532.85
2019-01-13T03:50:21.009Z,100528.30
2019-01-13T03:52:53.259Z,100515.78
2019-01-13T03:55:20.027Z,100504.34
2019-01-13T03:57:48.900Z,100492.88
2019-01-13T04:00:22.330Z,100476.95
2019-01-13T04:02:51.289Z,100466.98
2019-01-13T04:05:20.154Z,100471.70
2019-01-13T04:07:49.064Z,100465.80
2019-01-13T04:10:17.991Z,100452.48
2019-01-13T04:12:46.933Z,100443.66
2019-01-13T04:15:54.084Z,100447.08
2019-01-13T04:18:22.979Z,100451.83
2019-01-13T04:20:51.857Z,100445.41
2019-01-13T04:23:20.797Z,100422.59
2019-01-13T04:25:49.728Z,100430.03
2019-01-13T04:28:18.543Z,100414.12
2019-01-13T04:30:47.442Z,100405.92
2019-01-13T04:33:16.327Z,100405.02
2019-01-13T04:35:45.262Z,100394.13
2019-01-13T04:38:14.158Z,100386.43
2019-01-13T04:40:43.036Z,100372.01
2019-01-13T04:43:11.947Z,100374.27
2019-01-13T04:45:40.842Z,100362.77
2019-01-13T04:48:09.798Z,100344.00
2019-01-13T04:50:38.695Z,100351.88
2019-01-13T04:53:07.609Z,100338.64
2019-01-13T04:55:36.465Z,100346.20
2019-01-13T04:58:05.356Z,100337.66
2019-01-13T05:00:34.241Z,100338.59
2019-01-13T05:03:03.134Z,100342.92
2019-01-13T05:05:32.024Z,100343.91
2019-01-13T05:08:00.897Z,100344.22
2019-01-13T05:10:29.858Z,100337.80
2019-01-13T05:12:58.663Z,100336.30
2019-01-13T05:15:27.562Z,100329.69
2019-01-13T05:17:56.448Z,100325.13
2019-01-13T05:20:25.344Z,100335.17
2019-01-13T05:22:54.232Z,100328.41
2019-01-13T05:25:23.161Z,100330.98
2019-01-13T05:27:52.054Z,100328.64
2019-01-13T05:30:22.423Z,100326.80
2019-01-13T05:32:51.305Z,100323.87
2019-01-13T05:35:20.401Z,100329.27
2019-01-13T05:37:49.311Z,100313.19
2019-01-13T05:40:19.938Z,100320.53
2019-01-13T05:42:48.830Z,100320.53
2019-01-13T05:45:19.230Z,100311.61
2019-01-13T05:47:48.161Z,100303.49
2019-01-13T05:50:18.443Z,100301.19
2019-01-13T05:52:48.565Z,100303.49
2019-01-13T05:55:17.442Z,100291.05
2019-01-13T05:57:46.306Z,100287.97
2019-01-13T06:00:20.895Z,100287.55
2019-01-13T06:02:49.784Z,100288.90
2019-01-13T06:05:18.666Z,100279.22
2019-01-13T06:07:47.594Z,100287.19
2019-01-13T06:10:17.469Z,100283.55
2019-01-13T06:12:46.350Z,100280.66
2019-01-13T06:15:17.391Z,100268.80
2019-01-13T06:17:46.333Z,100266.66
2019-01-13T06:20:17.119Z,100274.28
2019-01-13T06:22:46.023Z,100276.20
2019-01-13T06:25:14.906Z,100274.61
2019-01-13T06:27:43.827Z,100262.58
2019-01-13T06:30:15.242Z,100270.84
2019-01-13T06:32:44.131Z,100264.75
2019-01-13T06:35:13.021Z,100258.66
2019-01-13T06:37:42.024Z,100258.13
2019-01-13T06:40:12.750Z,100249.73
2019-01-13T06:42:41.647Z,100243.75
2019-01-13T06:45:13.116Z,100246.94
2019-01-13T06:47:42.007Z,100243.39
2019-01-13T06:50:12.145Z,100246.59
2019-01-13T06:52:41.029Z,100240.69
2019-01-13T06:55:09.929Z,100246.87
2019-01-13T06:57:38.841Z,100239.77
2019-01-13T07:00:16.806Z,100232.56
2019-01-13T07:02:45.682Z,100232.29
2019-01-13T07:05:14.588Z,100233.36
2019-01-13T07:07:43.461Z,100226.23
2019-01-13T07:10:12.377Z,100229.80
2019-01-13T07:12:41.295Z,100223.64
2019-01-13T07:15:11.676Z,100225.88
2019-01-13T07:17:40.561Z,100221.72
2019-01-13T07:20:11.933Z,100222.08
2019-01-13T07:22:40.913Z,100229.59
2019-01-13T07:25:09.778Z,100226.48
2019-01-13T07:27:38.601Z,100230.19
2019-01-13T07:30:16.474Z,100225.13
2019-01-13T07:32:45.378Z,100224.18
2019-01-13T07:35:14.263Z,100242.36
2019-01-13T07:37:43.210Z,100242.83
2019-01-13T07:40:17.256Z,100245.46
2019-01-13T07:42:46.141Z,100232.61
2019-01-13T07:45:16.498Z,100236.27
2019-01-13T07:47:45.385Z,100238.91
2019-01-13T07:50:15.618Z,100234.81
2019-01-13T07:52:44.562Z,100230.80
2019-01-13T07:55:15.734Z,100227.23
2019-01-13T07:57:44.615Z,100230.36
2019-01-13T08:00:19.636Z,100223.73
2019-01-13T08:02:47.812Z,100216.41
2019-01-13T08:05:16.738Z,100218.41
2019-01-13T08:07:45.685Z,100212.06
2019-01-13T08:10:14.909Z,100219.19
2019-01-13T08:12:43.837Z,100210.22
2019-01-13T08:15:16.189Z,100216.98
2019-01-13T08:17:45.092Z,100199.33
2019-01-13T08:20:17.129Z,100202.38
2019-01-13T08:22:46.116Z,100203.88
2019-01-13T08:25:15.023Z,100197.19
2019-01-13T08:27:43.916Z,100198.83
2019-01-13T08:30:17.380Z,100194.27
2019-01-13T08:32:46.308Z,100187.51
2019-01-13T08:35:15.187Z,100187.22
2019-01-13T08:37:44.074Z,100192.56
2019-01-13T08:40:14.935Z,100182.59
2019-01-13T08:42:43.813Z,100189.36
2019-01-13T08:45:12.724Z,100184.80
2019-01-13T08:47:41.614Z,100179.39
2019-01-13T08:50:16.233Z,100182.80
2019-01-13T08:52:45.126Z,100168.78
2019-01-13T08:55:14.012Z,100169.78
2019-01-13T08:57:42.918Z,100160.38
2019-01-13T09:00:15.874Z,100154.40
2019-01-13T09:02:44.774Z,100154.45
2019-01-13T09:05:13.657Z,100154.16
2019-01-13T09:07:42.611Z,100153.61
2019-01-13T09:10:13.464Z,100148.98
2019-01-13T09:12:42.375Z,100145.78
2019-01-13T09:15:13.739Z,100137.88
2019-01-13T09:17:42.659Z,100129.19
2019-01-13T09:20:15.014Z,100136.13
2019-01-13T09:22:43.891Z,100144.16
2019-01-13T09:25:12.768Z,100136.98
2019-01-13T09:27:41.687Z,100131.20
2019-01-13T09:30:13.923Z,100125.94
2019-01-13T09:32:42.822Z,100137.81
2019-01-13T09:35:11.739Z,100137.41
2019-01-13T09:37:40.624Z,100128.43
2019-01-13T09:40:11.121Z,100129.14
2019-01-13T09:42:40.066Z,100132.49
2019-01-13T09:45:10.145Z,100141.44
2019-01-13T09:47:39.133Z,100141.75
2019-01-13T09:50:09.706Z,100114.47
2019-01-13T09:52:38.576Z,100138.11
2019-01-13T09:55:09.172Z,100126.43
2019-01-13T09:57:38.091Z,100125.28
2019-01-13T10:00:13.837Z,100126.58
2019-01-13T10:02:46.606Z,100130.70
2019-01-13T10:05:11.644Z,100108.34
2019-01-13T10:07:40.521Z,100100.88
2019-01-13T10:10:10.219Z,100116.26
2019-01-13T10:12:39.122Z,100096.72
2019-01-13T10:15:11.165Z,100096.81
2019-01-13T10:17:40.073Z,100097.17
2019-01-13T10:20:10.390Z,100084.05
2019-01-13T10:22:39.266Z,100085.70
2019-01-13T10:25:08.309Z,100089.91
2019-01-13T10:27:37.188Z,100079.73
2019-01-13T10:30:09.612Z,100093.46
2019-01-13T10:32:38.495Z,100087.70
2019-01-13T10:35:08.664Z,100082.39
2019-01-13T10:37:37.550Z,100069.98
2019-01-13T10:40:08.811Z,100063.83
2019-01-13T10:42:37.624Z,100050.75
2019-01-13T10:45:07.008Z,100048.31
2019-01-13T10:47:35.905Z,100050.75
2019-01-13T10:50:06.117Z,100053.80
2019-01-13T10:52:34.993Z,100056.66
2019-01-13T10:55:04.646Z,100062.72
2019-01-13T10:57:33.558Z,100047.97
2019-01-13T11:00:02.443Z,100043.61
2019-01-13T11:02:31.412Z,100054.88
2019-01-13T11:05:00.291Z,100030.98
2019-01-13T11:07:29.161Z,100028.80
2019-01-13T11:09:58.052Z,100026.99
2019-01-13T11:12:26.947Z,100019.53
2019-01-13T11:14:55.819Z,100012.70
2019-01-13T11:17:24.729Z,100008.45
2019-01-13T11:19:53.619Z,100004.73
2019-01-13T11:22:22.486Z,99992.86
2019-01-13T11:24:51.377Z,99994.11
2019-01-13T11:27:20.264Z,99999.67
2019-01-13T11:29:49.137Z,99986.09
2019-01-13T11:32:18.050Z,99983.03
2019-01-13T11:34:46.952Z,99972.91
2019-01-13T11:37:15.855Z,99969.05
2019-01-13T11:39:44.746Z,99979.03
2019-01-13T11:42:13.644Z,99983.94
2019-01-13T11:44:42.539Z,99963.78
2019-01-13T11:47:11.462Z,99965.91
2019-01-13T11:49:40.396Z,99949.81
2019-01-13T11:52:09.432Z,99946.22
2019-01-13T11:54:38.344Z,99950.02
2019-01-13T11:57:07.369Z,99934.44
2019-01-13T11:59:36.290Z,99945.76
2019-01-13T12:02:05.258Z,99937.44
2019-01-13T12:04:34.131Z,99939.10
2019-01-13T12:07:03.041Z,99935.55
2019-01-13T12:09:32.102Z,99925.42
2019-01-13T12:12:00.977Z,99930.02
2019-01-13T12:14:29.930Z,99934.94
2019-01-13T12:16:58.836Z,99922.72
2019-01-13T12:19:28.117Z,99917.45
2019-01-13T12:21:56.958Z,99905.12
2019-01-13T12:24:26.056Z,99902.92
2019-01-13T12:26:55.170Z,99901.91
2019-01-13T12:29:25.209Z,99888.08
2019-01-13T12:32:06.365Z,99891.29
2019-01-13T12:34:38.023Z,99896.35
2019-01-13T12:37:08.484Z,99880.11
2019-01-13T12:39:36.382Z,99887.03
2019-01-13T12:42:05.612Z,99884.33
2019-01-13T12:44:34.820Z,99877.70
2019-01-13T12:47:03.908Z,99866.73
2019-01-13T12:49:36.394Z,99871.95
2019-01-13T12:52:16.459Z,99862.53
2019-01-13T12:54:47.128Z,99861.48
2019-01-13T12:57:16.845Z,99846.60
2019-01-13T13:00:02.726Z,99849.66
2019-01-13T13:02:37.126Z,99842.89
2019-01-13T13:16:20.725Z,99827.58
2019-01-13T13:19:27.785Z,99812.16
2019-01-13T13:22:00.547Z,99814.70
2019-01-13T13:24:40.974Z,99813.86
2019-01-13T13:27:28.019Z,99823.33
2019-01-13T13:30:11.276Z,99805.05
2019-01-13T13:33:01.722Z,99805.59
2019-01-13T13:39:06.662Z,99818.07
2019-01-13T13:44:40.834Z,99801.95
2019-01-13T13:47:18.253Z,99807.02
2019-01-13T13:49:48.225Z,99798.75
2019-01-13T13:52:20.252Z,99800.59
2019-01-13T13:54:49.239Z,99810.77
2019-01-13T13:57:18.465Z,99805.05
2019-01-13T13:59:48.035Z,99817.41
2019-01-13T14:02:19.975Z,99810.58
2019-01-13T14:04:49.248Z,99810.27
2019-01-13T14:07:21.609Z,99807.72
2019-01-13T14:09:50.764Z,99807.05
2019-01-13T14:12:34.189Z,99803.88
2019-01-13T14:15:18.341Z,99814.36
2019-01-13T14:17:54.003Z,99797.47
2019-01-13T14:20:29.642Z,99794.26
2019-01-13T14:23:08.554Z,99780.06
2019-01-13T14:25:40.165Z,99778.68
2019-01-13T14:28:23.957Z,99778.68
2019-01-13T14:31:04.490Z,99769.40
2019-01-13T14:33:40.089Z,99760.23
2019-01-13T14:36:12.973Z,99787.80
2019-01-13T14:38:45.377Z,99772.55
2019-01-13T14:41:15.319Z,99779.94
2019-01-13T14:43:44.910Z,99766.38
2019-01-13T14:46:23.869Z,99781.45
2019-01-13T14:49:09.166Z,99773.02
2019-01-13T14:51:55.534Z,99770.05
2019-01-13T14:54:34.098Z,99766.91
2019-01-13T14:59:55.529Z,99769.40
2019-01-13T15:02:32.542Z,99767.41
2019-01-13T15:05:06.154Z,99762.50
2019-01-13T15:07:39.998Z,99766.69
2019-01-13T15:10:17.344Z,99770.31
2019-01-13T15:12:47.125Z,99765.21
2019-01-13T15:15:24.516Z,99770.47
2019-01-13T15:18:02.739Z,99749.48
2019-01-13T15:20:48.562Z,99758.10
2019-01-13T15:23:20.009Z,99764.70
2019-01-13T15:25:55.711Z,99751.02
2019-01-13T15:28:48.218Z,99769.11
2019-01-13T15:34:12.701Z,99741.11
2019-01-13T15:36:55.609Z,99744.66
2019-01-13T15:39:28.661Z,99747.17
2019-01-13T15:42:03.227Z,99744.46
2019-01-13T15:44:58.819Z,99755.16
2019-01-13T15:48:02.005Z,99762.06
2019-01-13T15:50:37.690Z,99744.46
2019-01-13T15:53:19.655Z,99735.16
2019-01-13T15:56:06.510Z,99746.85
2019-01-13T15:58:48.983Z,99726.36
2019-01-13T16:01:17.523Z,99738.04
2019-01-13T16:03:53.343Z,99728.38
2019-01-13T16:06:40.222Z,99734.71
2019-01-13T16:09:55.963Z,99733.16
2019-01-13T16:12:14.911Z,99727.23
2019-01-13T16:14:53.843Z,99724.34
2019-01-13T16:17:24.575Z,99726.52
2019-01-13T16:20:15.125Z,99713.02
2019-01-13T16:22:58.558Z,99724.00
2019-01-13T16:25:33.340Z,99713.65
2019-01-13T16:28:40.054Z,99705.92
2019-01-13T16:31:21.115Z,99704.17
2019-01-13T16:33:55.566Z,99692.58
2019-01-13T16:36:32.269Z,99712.19
2019-01-13T16:39:13.642Z,99698.48
2019-01-13T16:41:59.569Z,99705.23
2019-01-13T16:44:41.455Z,99714.84
2019-01-13T16:47:28.889Z,99727.34
2019-01-13T16:49:54.745Z,99719.39
2019-01-13T16:52:24.098Z,99717.45
2019-01-13T16:55:05.354Z,99704.27
2019-01-13T16:57:39.667Z,99698.80
2019-01-13T17:03:32.588Z,99705.97
2019-01-13T17:06:15.734Z,99710.05
2019-01-13T17:09:04.720Z,99708.86
2019-01-13T17:12:01.556Z,99740.20
2019-01-13T17:14:40.477Z,99734.09
2019-01-13T17:17:13.021Z,99732.64
2019-01-13T17:19:59.091Z,99747.10
2019-01-13T17:22:34.986Z,99739.80
2019-01-13T17:25:15.459Z,99722.66
2019-01-13T17:27:53.948Z,99729.56
2019-01-13T17:30:29.947Z,99726.65
2019-01-13T17:33:37.874Z,99729.16
2019-01-13T17:36:32.207Z,99729.30
2019-01-13T17:39:02.922Z,99723.09
2019-01-13T17:41:29.997Z,99735.05
2019-01-13T17:43:58.983Z,99734.50
2019-01-13T17:46:28.092Z,99716.75
2019-01-13T17:48:57.176Z,99729.68
2019-01-13T17:51:26.165Z,99708.20
2019-01-13T17:53:55.077Z,99732.80
2019-01-13T17:56:24.020Z,99749.20
2019-01-13T17:58:52.936Z,99757.10
2019-01-13T18:01:31.870Z,99756.48
2019-01-13T18:04:00.800Z,99739.98
2019-01-13T18:06:29.668Z,99758.53
2019-01-13T18:08:58.566Z,99751.19
2019-01-13T18:11:27.606Z,99742.75
2019-01-13T18:13:56.565Z,99744.80
2019-01-13T18:16:30.084Z,99751.26
2019-01-13T18:18:57.475Z,99743.75
2019-01-13T18:21:26.559Z,99751.61
2019-01-13T18:23:55.523Z,99755.33
2019-01-13T18:26:24.518Z,99746.50
2019-01-13T18:28:58.038Z,99763.96
2019-01-13T18:31:25.657Z,99769.23
2019-01-13T18:33:54.671Z,99761.28
2019-01-13T18:36:23.602Z,99764.98
2019-01-13T18:38:54.603Z,99767.03
2019-01-13T18:41:23.495Z,99780.53
2019-01-13T18:43:52.570Z,99774.94
2019-01-13T18:46:21.462Z,99774.70
2019-01-13T18:48:50.380Z,99765.25
2019-01-13T18:51:19.378Z,99773.20
2019-01-13T18:53:48.195Z,99777.63
2019-01-13T18:56:24.648Z,99766.00
2019-01-13T18:58:53.663Z,99773.42
2019-01-13T19:01:22.660Z,99778.83
2019-01-13T19:03:51.892Z,99776.97
2019-01-13T19:06:20.839Z,99780.73
2019-01-13T19:08:49.757Z,99778.33
2019-01-13T19:11:36.412Z,99781.51
2019-01-13T19:14:20.056Z,99776.55
2019-01-13T19:17:04.075Z,99791.56
2019-01-13T19:19:44.592Z,99784.09
2019-01-13T19:22:13.761Z,99791.47
2019-01-13T19:24:42.662Z,99799.89
2019-01-13T19:27:11.729Z,99810.75
2019-01-13T19:29:45.573Z,99813.38
2019-01-13T19:32:14.539Z,99807.33
2019-01-13T19:34:43.546Z,99811.37
2019-01-13T19:37:12.562Z,99816.30
2019-01-13T19:39:41.452Z,99813.95
2019-01-13T19:42:10.453Z,99815.03
2019-01-13T19:44:39.384Z,99818.78
2019-01-13T19:47:08.350Z,99821.83
2019-01-13T19:49:37.316Z,99828.95
2019-01-13T19:52:06.344Z,99816.78
2019-01-13T19:54:35.319Z,99824.09
2019-01-13T19:57:09.256Z,99823.91
2019-01-13T19:59:38.266Z,99832.12
2019-01-13T20:02:07.182Z,99838.67
2019-01-13T20:04:36.130Z,99845.72
2019-01-13T20:07:05.134Z,99844.58
2019-01-13T20:09:34.151Z,99852.38
2019-01-13T20:12:03.121Z,99848.05
2019-01-13T20:14:32.096Z,99850.75
2019-01-13T20:17:01.001Z,99855.16
2019-01-13T20:19:29.990Z,99860.16
2019-01-13T20:22:00.799Z,99860.48
2019-01-13T20:24:29.849Z,99859.66
2019-01-13T20:26:58.754Z,99865.97
2019-01-13T20:29:27.744Z,99862.91
2019-01-13T20:31:56.585Z,99859.16
2019-01-13T20:34:25.477Z,99873.32
2019-01-13T20:36:54.551Z,99880.42
2019-01-13T20:39:23.503Z,99885.18
2019-01-13T20:41:52.442Z,99871.81
2019-01-13T20:44:21.353Z,99889.23
2019-01-13T20:46:50.350Z,99878.58
2019-01-13T20:49:19.294Z,99877.55
2019-01-13T20:51:48.207Z,99883.12
2019-01-13T20:54:17.121Z,99882.31
2019-01-13T20:56:46.005Z,99892.44
2019-01-13T20:59:14.963Z,99888.68
2019-01-13T21:01:44.028Z,99896.79
2019-01-13T21:04:12.851Z,99893.41
2019-01-13T21:06:44.170Z,99880.42
2019-01-13T21:09:13.109Z,99887.52
2019-01-13T21:11:42.029Z,99885.75
2019-01-13T21:14:11.043Z,99888.58
2019-01-13T21:16:40.238Z,99886.73
2019-01-13T21:19:09.227Z,99885.02
2019-01-13T21:21:46.477Z,99887.88
2019-01-13T21:24:15.476Z,99900.68
2019-01-13T21:26:44.371Z,99898.33
2019-01-13T21:29:13.279Z,99896.39
2019-01-13T21:31:42.225Z,99908.78
2019-01-13T21:34:11.217Z,99910.48
2019-01-13T21:36:40.082Z,99895.75
2019-01-13T21:39:09.338Z,99905.80
2019-01-13T21:41:38.269Z,99897.25
2019-01-13T21:44:07.239Z,99911.09
2019-01-13T21:46:36.237Z,99911.32
2019-01-13T21:49:05.208Z,99910.94
2019-01-13T21:51:34.134Z,99920.95
2019-01-13T21:54:03.145Z,99932.70
2019-01-13T21:56:32.085Z,99927.52
2019-01-13T21:59:00.992Z,99921.16
2019-01-13T22:01:35.402Z,99919.09
2019-01-13T22:03:58.830Z,99919.63
2019-01-13T22:06:27.817Z,99918.38
2019-01-13T22:08:56.784Z,99918.52
2019-01-13T22:11:25.792Z,99928.20
2019-01-13T22:13:54.642Z,99922.38
2019-01-13T22:16:23.586Z,99930.91
2019-01-13T22:18:52.451Z,99936.94
2019-01-13T22:21:21.370Z,99940.53
2019-01-13T22:23:50.269Z,99950.98
2019-01-13T22:26:19.171Z,99954.08
2019-01-13T22:28:48.061Z,99956.15
2019-01-13T22:31:22.363Z,99964.81
2019-01-13T22:33:45.804Z,99964.75
2019-01-13T22:36:14.749Z,99974.17
2019-01-13T22:38:43.632Z,99970.77
2019-01-13T22:41:12.494Z,99969.06
2019-01-13T22:43:41.373Z,99969.38
2019-01-13T22:46:10.275Z,99976.98
2019-01-13T22:48:39.142Z,99972.23
2019-01-13T22:51:08.066Z,99967.03
2019-01-13T22:53:36.956Z,99979.03
2019-01-13T22:56:05.830Z,99983.88
2019-01-13T22:58:34.824Z,99983.02
2019-01-13T23:01:38.777Z,99983.16
2019-01-13T23:04:12.204Z,99985.36
2019-01-13T23:06:41.104Z,99992.80
2019-01-13T23:09:10.996Z,99997.53
2019-01-13T23:11:39.872Z,100010.11
2019-01-13T23:14:08.787Z,100009.63
2019-01-13T23:16:37.746Z,100009.84
2019-01-13T23:19:06.623Z,100014.38
2019-01-13T23:21:35.629Z,100026.66
2019-01-13T23:24:04.502Z,100026.30
2019-01-13T23:26:33.422Z,100028.55
2019-01-13T23:29:02.328Z,100023.16
2019-01-13T23:31:31.286Z,100025.09
2019-01-13T23:34:00.130Z,100030.56
2019-01-13T23:36:29.027Z,100009.18
2019-01-13T23:38:57.987Z,100031.20
2019-01-13T23:41:26.871Z,100036.45
2019-01-13T23:43:55.831Z,100033.81
2019-01-13T23:46:24.671Z,100036.95
2019-01-13T23:48:53.842Z,100029.13
2019-01-13T23:51:22.752Z,100029.00
2019-01-13T23:53:51.648Z,100029.77
2019-01-13T23:56:20.555Z,100024.95
2019-01-13T23:58:49.462Z,100024.25
